sensor_id;sensor_type;location;lat;lon;timestamp;P1;durP1;ratioP1;P2;durP2;ratioP2
43088;SDS011;28709;52.030;5.652;2022-12-18T00:01:36;84.93;;;28.33;;
43088;SDS011;28709;52.030;5.652;2022-12-18T00:04:03;86.27;;;26.73;;
43088;SDS011;28709;52.030;5.652;2022-12-18T00:06:30;71.73;;;23.37;;
43088;SDS011;28709;52.030;5.652;2022-12-18T00:08:57;56.07;;;20.93;;
43088;SDS011;28709;52.030;5.652;2022-12-18T00:11:25;58.17;;;21.47;;
43088;SDS011;28709;52.030;5.652;2022-12-18T00:13:53;73.27;;;25.07;;
43088;SDS011;28709;52.030;5.652;2022-12-18T00:16:21;88.07;;;27.77;;
43088;SDS011;28709;52.030;5.652;2022-12-18T00:18:49;81.87;;;26.83;;
43088;SDS011;28709;52.030;5.652;2022-12-18T00:21:16;99.13;;;30.63;;
43088;SDS011;28709;52.030;5.652;2022-12-18T00:23:43;86.83;;;26.10;;
43088;SDS011;28709;52.030;5.652;2022-12-18T00:26:13;95.13;;;28.60;;
43088;SDS011;28709;52.030;5.652;2022-12-18T00:28:40;83.77;;;27.03;;
43088;SDS011;28709;52.030;5.652;2022-12-18T00:31:07;95.20;;;30.23;;
43088;SDS011;28709;52.030;5.652;2022-12-18T00:33:35;95.20;;;30.67;;
43088;SDS011;28709;52.030;5.652;2022-12-18T00:36:01;102.03;;;33.77;;
43088;SDS011;28709;52.030;5.652;2022-12-18T00:38:37;90.20;;;27.53;;
43088;SDS011;28709;52.030;5.652;2022-12-18T00:41:04;85.37;;;28.60;;
43088;SDS011;28709;52.030;5.652;2022-12-18T00:43:29;86.67;;;27.47;;
43088;SDS011;28709;52.030;5.652;2022-12-18T00:45:55;71.50;;;25.47;;
43088;SDS011;28709;52.030;5.652;2022-12-18T00:48:21;75.47;;;25.47;;
43088;SDS011;28709;52.030;5.652;2022-12-18T00:50:47;79.23;;;26.57;;
43088;SDS011;28709;52.030;5.652;2022-12-18T00:53:13;87.63;;;26.80;;
43088;SDS011;28709;52.030;5.652;2022-12-18T00:55:39;78.87;;;27.30;;
43088;SDS011;28709;52.030;5.652;2022-12-18T00:58:06;98.03;;;31.33;;
43088;SDS011;28709;52.030;5.652;2022-12-18T01:00:32;84.87;;;26.90;;
43088;SDS011;28709;52.030;5.652;2022-12-18T01:02:58;67.40;;;23.30;;
43088;SDS011;28709;52.030;5.652;2022-12-18T01:05:24;68.40;;;25.47;;
43088;SDS011;28709;52.030;5.652;2022-12-18T01:07:50;80.40;;;26.20;;
43088;SDS011;28709;52.030;5.652;2022-12-18T01:10:15;83.77;;;28.03;;
43088;SDS011;28709;52.030;5.652;2022-12-18T01:12:41;77.60;;;29.10;;
43088;SDS011;28709;52.030;5.652;2022-12-18T01:15:08;76.07;;;25.70;;
43088;SDS011;28709;52.030;5.652;2022-12-18T01:17:35;88.67;;;28.87;;
43088;SDS011;28709;52.030;5.652;2022-12-18T01:20:00;86.53;;;28.43;;
43088;SDS011;28709;52.030;5.652;2022-12-18T01:22:28;70.53;;;26.70;;
43088;SDS011;28709;52.030;5.652;2022-12-18T01:24:54;80.73;;;27.27;;
43088;SDS011;28709;52.030;5.652;2022-12-18T01:27:20;67.20;;;23.20;;
43088;SDS011;28709;52.030;5.652;2022-12-18T01:29:47;73.17;;;25.77;;
43088;SDS011;28709;52.030;5.652;2022-12-18T01:32:14;65.83;;;23.17;;
43088;SDS011;28709;52.030;5.652;2022-12-18T01:34:39;67.40;;;24.17;;
43088;SDS011;28709;52.030;5.652;2022-12-18T01:37:05;50.27;;;17.47;;
43088;SDS011;28709;52.030;5.652;2022-12-18T01:39:31;95.43;;;23.53;;
43088;SDS011;28709;52.030;5.652;2022-12-18T01:42:19;57.00;;;21.00;;
43088;SDS011;28709;52.030;5.652;2022-12-18T01:44:58;68.90;;;23.43;;
43088;SDS011;28709;52.030;5.652;2022-12-18T01:52:46;54.30;;;21.90;;
43088;SDS011;28709;52.030;5.652;2022-12-18T01:55:23;56.27;;;21.47;;
43088;SDS011;28709;52.030;5.652;2022-12-18T01:57:55;56.47;;;21.77;;
43088;SDS011;28709;52.030;5.652;2022-12-18T02:00:23;46.73;;;17.20;;
43088;SDS011;28709;52.030;5.652;2022-12-18T02:02:49;55.63;;;20.03;;
43088;SDS011;28709;52.030;5.652;2022-12-18T02:05:16;47.23;;;18.93;;
43088;SDS011;28709;52.030;5.652;2022-12-18T02:10:31;45.83;;;17.67;;
43088;SDS011;28709;52.030;5.652;2022-12-18T02:14:06;44.37;;;16.77;;
43088;SDS011;28709;52.030;5.652;2022-12-18T02:25:01;46.10;;;17.27;;
43088;SDS011;28709;52.030;5.652;2022-12-18T02:27:45;47.53;;;17.07;;
43088;SDS011;28709;52.030;5.652;2022-12-18T02:30:14;39.53;;;16.53;;
43088;SDS011;28709;52.030;5.652;2022-12-18T02:32:42;45.13;;;17.03;;
43088;SDS011;28709;52.030;5.652;2022-12-18T02:35:12;40.00;;;16.17;;
43088;SDS011;28709;52.030;5.652;2022-12-18T02:37:45;44.17;;;17.90;;
43088;SDS011;28709;52.030;5.652;2022-12-18T02:40:13;49.20;;;18.27;;
43088;SDS011;28709;52.030;5.652;2022-12-18T02:42:41;43.90;;;18.67;;
43088;SDS011;28709;52.030;5.652;2022-12-18T02:45:06;48.70;;;18.73;;
43088;SDS011;28709;52.030;5.652;2022-12-18T02:47:33;45.20;;;17.87;;
43088;SDS011;28709;52.030;5.652;2022-12-18T02:52:55;41.35;;;16.67;;
43088;SDS011;28709;52.030;5.652;2022-12-18T03:01:00;51.30;;;19.83;;
43088;SDS011;28709;52.030;5.652;2022-12-18T03:03:52;39.07;;;17.30;;
43088;SDS011;28709;52.030;5.652;2022-12-18T03:06:32;48.40;;;18.87;;
43088;SDS011;28709;52.030;5.652;2022-12-18T03:09:04;40.83;;;18.20;;
43088;SDS011;28709;52.030;5.652;2022-12-18T03:11:34;46.90;;;19.80;;
43088;SDS011;28709;52.030;5.652;2022-12-18T03:14:21;52.70;;;19.57;;
43088;SDS011;28709;52.030;5.652;2022-12-18T03:16:52;47.07;;;18.37;;
43088;SDS011;28709;52.030;5.652;2022-12-18T03:19:24;46.73;;;19.13;;
43088;SDS011;28709;52.030;5.652;2022-12-18T03:21:54;47.50;;;18.30;;
43088;SDS011;28709;52.030;5.652;2022-12-18T03:24:21;49.80;;;19.50;;
43088;SDS011;28709;52.030;5.652;2022-12-18T03:26:50;35.23;;;15.07;;
43088;SDS011;28709;52.030;5.652;2022-12-18T03:29:21;37.67;;;15.10;;
43088;SDS011;28709;52.030;5.652;2022-12-18T03:31:52;38.57;;;16.70;;
43088;SDS011;28709;52.030;5.652;2022-12-18T03:34:22;36.63;;;16.70;;
43088;SDS011;28709;52.030;5.652;2022-12-18T03:36:51;39.07;;;14.70;;
43088;SDS011;28709;52.030;5.652;2022-12-18T03:39:17;39.33;;;14.90;;
43088;SDS011;28709;52.030;5.652;2022-12-18T03:41:45;41.97;;;15.97;;
43088;SDS011;28709;52.030;5.652;2022-12-18T03:47:05;40.30;;;16.87;;
43088;SDS011;28709;52.030;5.652;2022-12-18T03:49:36;38.70;;;17.17;;
43088;SDS011;28709;52.030;5.652;2022-12-18T03:54:58;40.37;;;14.70;;
43088;SDS011;28709;52.030;5.652;2022-12-18T03:57:27;36.30;;;14.37;;
43088;SDS011;28709;52.030;5.652;2022-12-18T03:59:56;37.67;;;15.17;;
43088;SDS011;28709;52.030;5.652;2022-12-18T04:02:25;32.47;;;13.17;;
43088;SDS011;28709;52.030;5.652;2022-12-18T04:04:55;38.30;;;15.90;;
43088;SDS011;28709;52.030;5.652;2022-12-18T04:07:25;41.58;;;17.77;;
43088;SDS011;28709;52.030;5.652;2022-12-18T04:09:53;42.93;;;15.37;;
43088;SDS011;28709;52.030;5.652;2022-12-18T04:12:23;35.77;;;15.03;;
43088;SDS011;28709;52.030;5.652;2022-12-18T04:14:51;37.80;;;16.73;;
43088;SDS011;28709;52.030;5.652;2022-12-18T04:17:17;38.80;;;16.23;;
43088;SDS011;28709;52.030;5.652;2022-12-18T04:19:43;36.33;;;14.97;;
43088;SDS011;28709;52.030;5.652;2022-12-18T04:22:11;33.10;;;13.57;;
43088;SDS011;28709;52.030;5.652;2022-12-18T04:24:37;30.93;;;13.43;;
43088;SDS011;28709;52.030;5.652;2022-12-18T04:27:02;34.90;;;13.33;;
43088;SDS011;28709;52.030;5.652;2022-12-18T04:29:29;28.33;;;11.53;;
43088;SDS011;28709;52.030;5.652;2022-12-18T04:31:54;30.10;;;13.20;;
43088;SDS011;28709;52.030;5.652;2022-12-18T04:34:20;25.87;;;12.33;;
43088;SDS011;28709;52.030;5.652;2022-12-18T04:36:46;30.30;;;13.47;;
43088;SDS011;28709;52.030;5.652;2022-12-18T04:39:12;28.90;;;12.70;;
43088;SDS011;28709;52.030;5.652;2022-12-18T04:41:38;29.07;;;11.50;;
43088;SDS011;28709;52.030;5.652;2022-12-18T04:44:03;32.57;;;12.60;;
43088;SDS011;28709;52.030;5.652;2022-12-18T04:46:29;31.27;;;11.93;;
43088;SDS011;28709;52.030;5.652;2022-12-18T04:48:55;35.43;;;15.00;;
43088;SDS011;28709;52.030;5.652;2022-12-18T04:51:20;30.43;;;13.93;;
43088;SDS011;28709;52.030;5.652;2022-12-18T04:53:46;32.13;;;13.10;;
43088;SDS011;28709;52.030;5.652;2022-12-18T04:56:13;27.97;;;11.90;;
43088;SDS011;28709;52.030;5.652;2022-12-18T04:58:40;23.73;;;10.47;;
43088;SDS011;28709;52.030;5.652;2022-12-18T05:01:08;27.07;;;11.63;;
43088;SDS011;28709;52.030;5.652;2022-12-18T05:03:34;34.43;;;12.70;;
43088;SDS011;28709;52.030;5.652;2022-12-18T05:06:00;29.73;;;12.13;;
43088;SDS011;28709;52.030;5.652;2022-12-18T05:08:26;26.37;;;11.80;;
43088;SDS011;28709;52.030;5.652;2022-12-18T05:11:02;27.27;;;11.53;;
43088;SDS011;28709;52.030;5.652;2022-12-18T05:13:33;27.80;;;12.57;;
43088;SDS011;28709;52.030;5.652;2022-12-18T05:15:59;27.73;;;10.93;;
43088;SDS011;28709;52.030;5.652;2022-12-18T05:18:25;27.33;;;11.63;;
43088;SDS011;28709;52.030;5.652;2022-12-18T05:20:52;23.40;;;10.33;;
43088;SDS011;28709;52.030;5.652;2022-12-18T05:23:18;31.57;;;13.83;;
43088;SDS011;28709;52.030;5.652;2022-12-18T05:25:52;26.07;;;12.53;;
43088;SDS011;28709;52.030;5.652;2022-12-18T05:28:19;33.22;;;15.02;;
43088;SDS011;28709;52.030;5.652;2022-12-18T05:30:48;28.60;;;13.13;;
43088;SDS011;28709;52.030;5.652;2022-12-18T05:33:15;27.80;;;12.70;;
43088;SDS011;28709;52.030;5.652;2022-12-18T05:35:41;31.23;;;13.17;;
43088;SDS011;28709;52.030;5.652;2022-12-18T05:38:07;27.90;;;13.67;;
43088;SDS011;28709;52.030;5.652;2022-12-18T05:40:33;25.30;;;11.53;;
43088;SDS011;28709;52.030;5.652;2022-12-18T05:42:58;32.93;;;14.23;;
43088;SDS011;28709;52.030;5.652;2022-12-18T05:45:24;31.73;;;12.50;;
43088;SDS011;28709;52.030;5.652;2022-12-18T05:47:50;24.43;;;10.80;;
43088;SDS011;28709;52.030;5.652;2022-12-18T05:50:15;23.20;;;10.80;;
43088;SDS011;28709;52.030;5.652;2022-12-18T05:52:41;21.40;;;9.20;;
43088;SDS011;28709;52.030;5.652;2022-12-18T05:55:07;21.93;;;9.30;;
43088;SDS011;28709;52.030;5.652;2022-12-18T05:57:33;24.63;;;10.27;;
43088;SDS011;28709;52.030;5.652;2022-12-18T05:59:58;29.10;;;10.50;;
43088;SDS011;28709;52.030;5.652;2022-12-18T06:02:24;24.90;;;10.67;;
43088;SDS011;28709;52.030;5.652;2022-12-18T06:04:50;26.07;;;10.03;;
43088;SDS011;28709;52.030;5.652;2022-12-18T06:07:15;21.30;;;9.10;;
43088;SDS011;28709;52.030;5.652;2022-12-18T06:09:41;22.07;;;8.73;;
43088;SDS011;28709;52.030;5.652;2022-12-18T06:12:07;19.17;;;9.10;;
43088;SDS011;28709;52.030;5.652;2022-12-18T06:14:32;19.50;;;9.30;;
43088;SDS011;28709;52.030;5.652;2022-12-18T06:17:00;19.07;;;8.47;;
43088;SDS011;28709;52.030;5.652;2022-12-18T06:19:26;22.87;;;10.63;;
43088;SDS011;28709;52.030;5.652;2022-12-18T06:21:52;19.23;;;8.33;;
43088;SDS011;28709;52.030;5.652;2022-12-18T06:24:18;21.37;;;10.37;;
43088;SDS011;28709;52.030;5.652;2022-12-18T06:26:43;28.30;;;10.70;;
43088;SDS011;28709;52.030;5.652;2022-12-18T06:29:09;20.37;;;9.07;;
43088;SDS011;28709;52.030;5.652;2022-12-18T06:31:35;20.57;;;8.73;;
43088;SDS011;28709;52.030;5.652;2022-12-18T06:34:03;17.53;;;8.70;;
43088;SDS011;28709;52.030;5.652;2022-12-18T06:36:29;21.30;;;8.20;;
43088;SDS011;28709;52.030;5.652;2022-12-18T06:38:55;20.60;;;8.07;;
43088;SDS011;28709;52.030;5.652;2022-12-18T06:41:21;19.23;;;8.60;;
43088;SDS011;28709;52.030;5.652;2022-12-18T06:43:47;25.37;;;10.17;;
43088;SDS011;28709;52.030;5.652;2022-12-18T06:46:13;23.50;;;9.83;;
43088;SDS011;28709;52.030;5.652;2022-12-18T06:48:39;25.10;;;10.37;;
43088;SDS011;28709;52.030;5.652;2022-12-18T06:51:05;24.30;;;10.63;;
43088;SDS011;28709;52.030;5.652;2022-12-18T06:53:32;26.17;;;11.07;;
43088;SDS011;28709;52.030;5.652;2022-12-18T06:56:05;26.67;;;12.37;;
43088;SDS011;28709;52.030;5.652;2022-12-18T06:58:32;28.77;;;11.60;;
43088;SDS011;28709;52.030;5.652;2022-12-18T07:01:01;21.13;;;10.57;;
43088;SDS011;28709;52.030;5.652;2022-12-18T07:03:28;28.77;;;11.87;;
43088;SDS011;28709;52.030;5.652;2022-12-18T07:05:54;24.40;;;9.97;;
43088;SDS011;28709;52.030;5.652;2022-12-18T07:08:20;22.90;;;10.33;;
43088;SDS011;28709;52.030;5.652;2022-12-18T07:10:46;23.43;;;11.20;;
43088;SDS011;28709;52.030;5.652;2022-12-18T07:13:14;25.87;;;11.10;;
43088;SDS011;28709;52.030;5.652;2022-12-18T07:15:40;25.57;;;12.07;;
43088;SDS011;28709;52.030;5.652;2022-12-18T07:18:05;24.50;;;11.07;;
43088;SDS011;28709;52.030;5.652;2022-12-18T07:20:31;27.77;;;11.17;;
43088;SDS011;28709;52.030;5.652;2022-12-18T07:22:57;24.50;;;11.80;;
43088;SDS011;28709;52.030;5.652;2022-12-18T07:25:22;27.20;;;12.37;;
43088;SDS011;28709;52.030;5.652;2022-12-18T07:27:48;23.17;;;11.07;;
43088;SDS011;28709;52.030;5.652;2022-12-18T07:30:14;23.03;;;11.13;;
43088;SDS011;28709;52.030;5.652;2022-12-18T07:32:39;28.10;;;12.43;;
43088;SDS011;28709;52.030;5.652;2022-12-18T07:35:05;37.93;;;13.53;;
43088;SDS011;28709;52.030;5.652;2022-12-18T07:37:31;23.53;;;11.03;;
43088;SDS011;28709;52.030;5.652;2022-12-18T07:39:56;30.23;;;11.97;;
43088;SDS011;28709;52.030;5.652;2022-12-18T07:42:22;24.60;;;10.70;;
43088;SDS011;28709;52.030;5.652;2022-12-18T07:45:00;24.10;;;10.23;;
43088;SDS011;28709;52.030;5.652;2022-12-18T07:47:29;24.00;;;10.80;;
43088;SDS011;28709;52.030;5.652;2022-12-18T07:49:55;28.30;;;12.23;;
43088;SDS011;28709;52.030;5.652;2022-12-18T07:52:21;23.73;;;10.87;;
43088;SDS011;28709;52.030;5.652;2022-12-18T07:54:46;22.93;;;10.20;;
43088;SDS011;28709;52.030;5.652;2022-12-18T07:57:15;21.73;;;9.90;;
43088;SDS011;28709;52.030;5.652;2022-12-18T07:59:41;21.33;;;10.00;;
43088;SDS011;28709;52.030;5.652;2022-12-18T08:02:07;22.07;;;10.27;;
43088;SDS011;28709;52.030;5.652;2022-12-18T08:04:33;22.83;;;10.57;;
43088;SDS011;28709;52.030;5.652;2022-12-18T08:06:58;20.93;;;9.60;;
43088;SDS011;28709;52.030;5.652;2022-12-18T08:09:24;20.37;;;8.87;;
43088;SDS011;28709;52.030;5.652;2022-12-18T08:11:50;21.00;;;10.20;;
43088;SDS011;28709;52.030;5.652;2022-12-18T08:14:15;22.83;;;9.67;;
43088;SDS011;28709;52.030;5.652;2022-12-18T08:16:41;21.73;;;9.27;;
43088;SDS011;28709;52.030;5.652;2022-12-18T08:19:07;23.13;;;10.35;;
43088;SDS011;28709;52.030;5.652;2022-12-18T08:21:35;17.15;;;9.13;;
43088;SDS011;28709;52.030;5.652;2022-12-18T08:24:01;21.07;;;9.23;;
43088;SDS011;28709;52.030;5.652;2022-12-18T08:26:28;22.73;;;9.20;;
43088;SDS011;28709;52.030;5.652;2022-12-18T08:28:56;19.07;;;9.43;;
43088;SDS011;28709;52.030;5.652;2022-12-18T08:31:23;21.27;;;9.70;;
43088;SDS011;28709;52.030;5.652;2022-12-18T08:33:51;21.60;;;9.80;;
43088;SDS011;28709;52.030;5.652;2022-12-18T08:36:18;18.13;;;8.87;;
43088;SDS011;28709;52.030;5.652;2022-12-18T08:38:45;24.27;;;10.27;;
43088;SDS011;28709;52.030;5.652;2022-12-18T08:41:12;20.67;;;9.47;;
43088;SDS011;28709;52.030;5.652;2022-12-18T08:43:39;24.87;;;10.17;;
43088;SDS011;28709;52.030;5.652;2022-12-18T08:46:24;17.70;;;8.95;;
43088;SDS011;28709;52.030;5.652;2022-12-18T08:48:52;18.50;;;9.00;;
43088;SDS011;28709;52.030;5.652;2022-12-18T08:51:18;18.88;;;9.00;;
43088;SDS011;28709;52.030;5.652;2022-12-18T08:53:44;19.87;;;9.60;;
43088;SDS011;28709;52.030;5.652;2022-12-18T08:56:10;16.73;;;7.80;;
43088;SDS011;28709;52.030;5.652;2022-12-18T08:58:37;17.67;;;8.70;;
43088;SDS011;28709;52.030;5.652;2022-12-18T09:01:04;17.30;;;8.18;;
43088;SDS011;28709;52.030;5.652;2022-12-18T09:03:31;19.83;;;9.18;;
43088;SDS011;28709;52.030;5.652;2022-12-18T09:05:57;15.47;;;7.90;;
43088;SDS011;28709;52.030;5.652;2022-12-18T09:08:23;19.90;;;8.97;;
43088;SDS011;28709;52.030;5.652;2022-12-18T09:10:49;17.73;;;8.77;;
43088;SDS011;28709;52.030;5.652;2022-12-18T09:13:15;17.83;;;8.27;;
43088;SDS011;28709;52.030;5.652;2022-12-18T09:18:10;19.98;;;8.00;;
43088;SDS011;28709;52.030;5.652;2022-12-18T09:20:36;16.08;;;8.80;;
43088;SDS011;28709;52.030;5.652;2022-12-18T09:23:03;20.52;;;8.27;;
43088;SDS011;28709;52.030;5.652;2022-12-18T09:25:30;20.60;;;9.20;;
43088;SDS011;28709;52.030;5.652;2022-12-18T09:27:58;16.60;;;8.40;;
43088;SDS011;28709;52.030;5.652;2022-12-18T09:30:25;17.02;;;8.32;;
43088;SDS011;28709;52.030;5.652;2022-12-18T09:32:54;17.75;;;8.57;;
43088;SDS011;28709;52.030;5.652;2022-12-18T09:35:20;16.33;;;8.68;;
43088;SDS011;28709;52.030;5.652;2022-12-18T09:37:46;21.67;;;7.82;;
43088;SDS011;28709;52.030;5.652;2022-12-18T09:40:19;19.88;;;8.50;;
43088;SDS011;28709;52.030;5.652;2022-12-18T09:42:52;16.95;;;7.85;;
43088;SDS011;28709;52.030;5.652;2022-12-18T09:45:23;20.90;;;8.70;;
43088;SDS011;28709;52.030;5.652;2022-12-18T09:47:49;15.75;;;8.90;;
43088;SDS011;28709;52.030;5.652;2022-12-18T09:52:53;16.35;;;7.60;;
43088;SDS011;28709;52.030;5.652;2022-12-18T09:55:32;15.35;;;7.88;;
43088;SDS011;28709;52.030;5.652;2022-12-18T10:00:35;18.13;;;7.65;;
43088;SDS011;28709;52.030;5.652;2022-12-18T10:03:03;16.60;;;7.90;;
43088;SDS011;28709;52.030;5.652;2022-12-18T10:05:43;19.92;;;8.88;;
43088;SDS011;28709;52.030;5.652;2022-12-18T10:08:28;17.52;;;7.75;;
43088;SDS011;28709;52.030;5.652;2022-12-18T10:19:46;14.73;;;7.25;;
43088;SDS011;28709;52.030;5.652;2022-12-18T10:27:42;13.43;;;7.20;;
43088;SDS011;28709;52.030;5.652;2022-12-18T10:30:18;16.35;;;8.77;;
43088;SDS011;28709;52.030;5.652;2022-12-18T10:32:46;17.13;;;7.88;;
43088;SDS011;28709;52.030;5.652;2022-12-18T10:35:17;17.27;;;8.48;;
43088;SDS011;28709;52.030;5.652;2022-12-18T10:40:25;20.10;;;8.52;;
43088;SDS011;28709;52.030;5.652;2022-12-18T10:45:39;18.55;;;7.13;;
43088;SDS011;28709;52.030;5.652;2022-12-18T10:48:17;19.73;;;8.65;;
43088;SDS011;28709;52.030;5.652;2022-12-18T10:50:50;16.05;;;7.43;;
43088;SDS011;28709;52.030;5.652;2022-12-18T10:53:19;16.23;;;7.80;;
43088;SDS011;28709;52.030;5.652;2022-12-18T10:55:47;15.82;;;7.57;;
43088;SDS011;28709;52.030;5.652;2022-12-18T11:03:33;19.83;;;9.35;;
43088;SDS011;28709;52.030;5.652;2022-12-18T11:06:05;13.35;;;7.90;;
43088;SDS011;28709;52.030;5.652;2022-12-18T11:08:32;17.75;;;8.48;;
43088;SDS011;28709;52.030;5.652;2022-12-18T11:10:58;17.35;;;7.88;;
43088;SDS011;28709;52.030;5.652;2022-12-18T11:13:24;15.27;;;7.80;;
43088;SDS011;28709;52.030;5.652;2022-12-18T11:15:52;14.93;;;7.65;;
43088;SDS011;28709;52.030;5.652;2022-12-18T11:18:19;17.30;;;8.15;;
43088;SDS011;28709;52.030;5.652;2022-12-18T11:23:33;19.75;;;9.00;;
43088;SDS011;28709;52.030;5.652;2022-12-18T11:26:04;20.45;;;8.50;;
43088;SDS011;28709;52.030;5.652;2022-12-18T11:28:35;17.27;;;9.32;;
43088;SDS011;28709;52.030;5.652;2022-12-18T11:31:09;18.80;;;8.85;;
43088;SDS011;28709;52.030;5.652;2022-12-18T11:33:50;13.07;;;6.60;;
43088;SDS011;28709;52.030;5.652;2022-12-18T11:36:38;18.17;;;8.40;;
43088;SDS011;28709;52.030;5.652;2022-12-18T11:39:15;16.23;;;8.07;;
43088;SDS011;28709;52.030;5.652;2022-12-18T11:42:04;17.58;;;7.57;;
43088;SDS011;28709;52.030;5.652;2022-12-18T11:49:44;16.10;;;8.25;;
43088;SDS011;28709;52.030;5.652;2022-12-18T11:52:27;15.45;;;7.90;;
43088;SDS011;28709;52.030;5.652;2022-12-18T11:55:13;15.23;;;7.43;;
43088;SDS011;28709;52.030;5.652;2022-12-18T12:00:28;21.40;;;8.20;;
43088;SDS011;28709;52.030;5.652;2022-12-18T12:03:38;15.45;;;8.40;;
43088;SDS011;28709;52.030;5.652;2022-12-18T12:08:54;16.60;;;8.52;;
43088;SDS011;28709;52.030;5.652;2022-12-18T12:12:07;15.82;;;7.95;;
43088;SDS011;28709;52.030;5.652;2022-12-18T12:14:50;15.65;;;8.60;;
43088;SDS011;28709;52.030;5.652;2022-12-18T12:20:21;16.00;;;8.07;;
43088;SDS011;28709;52.030;5.652;2022-12-18T12:23:05;18.45;;;8.52;;
43088;SDS011;28709;52.030;5.652;2022-12-18T12:25:46;17.48;;;8.00;;
43088;SDS011;28709;52.030;5.652;2022-12-18T12:39:35;17.70;;;9.48;;
43088;SDS011;28709;52.030;5.652;2022-12-18T12:42:03;20.70;;;9.25;;
43088;SDS011;28709;52.030;5.652;2022-12-18T12:44:51;17.83;;;8.55;;
43088;SDS011;28709;52.030;5.652;2022-12-18T12:47:25;19.95;;;9.52;;
43088;SDS011;28709;52.030;5.652;2022-12-18T12:49:56;16.10;;;7.85;;
43088;SDS011;28709;52.030;5.652;2022-12-18T12:52:31;25.15;;;10.70;;
43088;SDS011;28709;52.030;5.652;2022-12-18T12:55:04;20.90;;;9.10;;
43088;SDS011;28709;52.030;5.652;2022-12-18T13:02:42;17.50;;;8.27;;
43088;SDS011;28709;52.030;5.652;2022-12-18T13:08:09;17.17;;;8.73;;
43088;SDS011;28709;52.030;5.652;2022-12-18T13:10:38;23.52;;;11.25;;
43088;SDS011;28709;52.030;5.652;2022-12-18T13:13:06;18.25;;;8.77;;
43088;SDS011;28709;52.030;5.652;2022-12-18T13:16:02;17.73;;;9.00;;
43088;SDS011;28709;52.030;5.652;2022-12-18T13:18:30;18.52;;;10.02;;
43088;SDS011;28709;52.030;5.652;2022-12-18T13:23:26;19.75;;;9.52;;
43088;SDS011;28709;52.030;5.652;2022-12-18T13:26:43;17.20;;;8.48;;
43088;SDS011;28709;52.030;5.652;2022-12-18T13:34:19;23.85;;;10.27;;
43088;SDS011;28709;52.030;5.652;2022-12-18T13:36:54;24.50;;;11.18;;
43088;SDS011;28709;52.030;5.652;2022-12-18T13:39:41;24.92;;;10.65;;
43088;SDS011;28709;52.030;5.652;2022-12-18T13:44:33;19.38;;;8.80;;
43088;SDS011;28709;52.030;5.652;2022-12-18T13:47:04;20.48;;;8.40;;
43088;SDS011;28709;52.030;5.652;2022-12-18T13:49:45;19.15;;;8.48;;
43088;SDS011;28709;52.030;5.652;2022-12-18T13:52:16;21.95;;;8.55;;
43088;SDS011;28709;52.030;5.652;2022-12-18T13:54:45;21.25;;;9.02;;
43088;SDS011;28709;52.030;5.652;2022-12-18T13:59:51;17.13;;;8.23;;
43088;SDS011;28709;52.030;5.652;2022-12-18T14:02:24;19.13;;;9.23;;
43088;SDS011;28709;52.030;5.652;2022-12-18T14:04:51;25.60;;;11.43;;
43088;SDS011;28709;52.030;5.652;2022-12-18T14:07:22;17.63;;;9.45;;
43088;SDS011;28709;52.030;5.652;2022-12-18T14:09:51;18.77;;;9.57;;
43088;SDS011;28709;52.030;5.652;2022-12-18T14:18:42;20.10;;;10.65;;
43088;SDS011;28709;52.030;5.652;2022-12-18T14:20:39;21.23;;;10.20;;
43088;SDS011;28709;52.030;5.652;2022-12-18T14:26:01;21.33;;;10.07;;
43088;SDS011;28709;52.030;5.652;2022-12-18T14:28:43;24.95;;;11.60;;
43088;SDS011;28709;52.030;5.652;2022-12-18T14:31:16;25.67;;;11.38;;
43088;SDS011;28709;52.030;5.652;2022-12-18T14:33:47;23.45;;;11.07;;
43088;SDS011;28709;52.030;5.652;2022-12-18T14:36:15;19.13;;;9.95;;
43088;SDS011;28709;52.030;5.652;2022-12-18T14:38:52;17.20;;;8.70;;
43088;SDS011;28709;52.030;5.652;2022-12-18T14:41:19;20.25;;;10.20;;
43088;SDS011;28709;52.030;5.652;2022-12-18T14:43:47;22.80;;;11.50;;
43088;SDS011;28709;52.030;5.652;2022-12-18T14:49:03;25.15;;;10.60;;
43088;SDS011;28709;52.030;5.652;2022-12-18T14:51:46;19.88;;;9.88;;
43088;SDS011;28709;52.030;5.652;2022-12-18T14:54:15;18.80;;;9.25;;
43088;SDS011;28709;52.030;5.652;2022-12-18T14:56:44;18.50;;;9.30;;
43088;SDS011;28709;52.030;5.652;2022-12-18T14:59:13;19.95;;;9.98;;
43088;SDS011;28709;52.030;5.652;2022-12-18T15:04:38;20.95;;;9.77;;
43088;SDS011;28709;52.030;5.652;2022-12-18T15:07:07;22.77;;;11.25;;
43088;SDS011;28709;52.030;5.652;2022-12-18T15:09:42;21.13;;;9.93;;
43088;SDS011;28709;52.030;5.652;2022-12-18T15:12:44;19.77;;;9.38;;
43088;SDS011;28709;52.030;5.652;2022-12-18T15:18:01;23.23;;;10.70;;
43088;SDS011;28709;52.030;5.652;2022-12-18T15:20:40;23.60;;;10.05;;
43088;SDS011;28709;52.030;5.652;2022-12-18T15:23:23;17.10;;;9.20;;
43088;SDS011;28709;52.030;5.652;2022-12-18T15:26:11;20.40;;;10.35;;
43088;SDS011;28709;52.030;5.652;2022-12-18T15:33:40;21.02;;;10.18;;
43088;SDS011;28709;52.030;5.652;2022-12-18T15:36:12;24.77;;;11.45;;
43088;SDS011;28709;52.030;5.652;2022-12-18T15:38:39;20.00;;;10.27;;
43088;SDS011;28709;52.030;5.652;2022-12-18T15:41:05;18.95;;;9.80;;
43088;SDS011;28709;52.030;5.652;2022-12-18T15:43:31;21.60;;;10.07;;
43088;SDS011;28709;52.030;5.652;2022-12-18T15:46:00;21.00;;;9.75;;
43088;SDS011;28709;52.030;5.652;2022-12-18T15:48:27;22.58;;;10.95;;
43088;SDS011;28709;52.030;5.652;2022-12-18T15:50:53;24.13;;;11.90;;
43088;SDS011;28709;52.030;5.652;2022-12-18T15:53:22;22.38;;;10.60;;
43088;SDS011;28709;52.030;5.652;2022-12-18T15:55:48;21.02;;;11.18;;
43088;SDS011;28709;52.030;5.652;2022-12-18T15:58:33;24.80;;;11.82;;
43088;SDS011;28709;52.030;5.652;2022-12-18T16:00:59;21.70;;;10.63;;
43088;SDS011;28709;52.030;5.652;2022-12-18T16:03:26;22.27;;;11.00;;
43088;SDS011;28709;52.030;5.652;2022-12-18T16:05:52;23.73;;;11.50;;
43088;SDS011;28709;52.030;5.652;2022-12-18T16:08:17;25.30;;;12.15;;
43088;SDS011;28709;52.030;5.652;2022-12-18T16:10:43;27.45;;;11.80;;
43088;SDS011;28709;52.030;5.652;2022-12-18T16:13:10;25.30;;;12.23;;
43088;SDS011;28709;52.030;5.652;2022-12-18T16:15:37;23.15;;;11.80;;
43088;SDS011;28709;52.030;5.652;2022-12-18T16:18:02;35.83;;;13.55;;
43088;SDS011;28709;52.030;5.652;2022-12-18T16:20:28;25.55;;;12.55;;
43088;SDS011;28709;52.030;5.652;2022-12-18T16:22:54;26.73;;;12.50;;
43088;SDS011;28709;52.030;5.652;2022-12-18T16:25:22;23.80;;;11.45;;
43088;SDS011;28709;52.030;5.652;2022-12-18T16:27:49;26.10;;;11.38;;
43088;SDS011;28709;52.030;5.652;2022-12-18T16:30:16;24.88;;;11.80;;
43088;SDS011;28709;52.030;5.652;2022-12-18T16:32:46;21.05;;;10.77;;
43088;SDS011;28709;52.030;5.652;2022-12-18T16:35:13;21.45;;;10.93;;
43088;SDS011;28709;52.030;5.652;2022-12-18T16:37:40;23.05;;;11.77;;
43088;SDS011;28709;52.030;5.652;2022-12-18T16:40:07;21.88;;;11.05;;
43088;SDS011;28709;52.030;5.652;2022-12-18T16:42:34;27.23;;;12.25;;
43088;SDS011;28709;52.030;5.652;2022-12-18T16:45:01;27.08;;;13.10;;
43088;SDS011;28709;52.030;5.652;2022-12-18T16:47:28;28.90;;;12.73;;
43088;SDS011;28709;52.030;5.652;2022-12-18T16:49:54;24.27;;;11.05;;
43088;SDS011;28709;52.030;5.652;2022-12-18T16:52:19;29.38;;;11.90;;
43088;SDS011;28709;52.030;5.652;2022-12-18T16:54:45;28.75;;;12.98;;